sensor_id;sensor_type;location;lat;lon;timestamp;temperature;humidity
19397;DHT22;9834;48.076;11.878;2023-03-01T00:00:29;1.10;99.90
19397;DHT22;9834;48.076;11.878;2023-03-01T00:02:56;1.10;99.90
19397;DHT22;9834;48.076;11.878;2023-03-01T00:05:23;1.00;99.90
19397;DHT22;9834;48.076;11.878;2023-03-01T00:07:52;1.00;99.90
19397;DHT22;9834;48.076;11.878;2023-03-01T00:10:20;1.00;99.90
19397;DHT22;9834;48.076;11.878;2023-03-01T00:12:47;1.00;99.90
19397;DHT22;9834;48.076;11.878;2023-03-01T00:15:15;1.00;99.90
19397;DHT22;9834;48.076;11.878;2023-03-01T00:17:44;1.00;99.90
19397;DHT22;9834;48.076;11.878;2023-03-01T00:20:12;1.00;99.90
19397;DHT22;9834;48.076;11.878;2023-03-01T00:22:40;1.00;99.90
19397;DHT22;9834;48.076;11.878;2023-03-01T00:25:07;1.00;99.90
19397;DHT22;9834;48.076;11.878;2023-03-01T00:27:35;1.00;99.90
19397;DHT22;9834;48.076;11.878;2023-03-01T00:30:03;1.00;99.90
19397;DHT22;9834;48.076;11.878;2023-03-01T00:32:30;1.00;99.90
19397;DHT22;9834;48.076;11.878;2023-03-01T00:34:59;1.00;99.90
19397;DHT22;9834;48.076;11.878;2023-03-01T00:37:27;0.90;99.90
19397;DHT22;9834;48.076;11.878;2023-03-01T00:39:54;0.90;99.90
19397;DHT22;9834;48.076;11.878;2023-03-01T00:42:22;0.90;99.90
19397;DHT22;9834;48.076;11.878;2023-03-01T00:44:49;0.90;99.90
19397;DHT22;9834;48.076;11.878;2023-03-01T00:47:16;1.00;99.90
19397;DHT22;9834;48.076;11.878;2023-03-01T00:49:44;0.90;99.90
19397;DHT22;9834;48.076;11.878;2023-03-01T00:52:13;1.00;99.90
19397;DHT22;9834;48.076;11.878;2023-03-01T00:54:40;0.90;99.90
19397;DHT22;9834;48.076;11.878;2023-03-01T00:57:08;0.90;99.90
19397;DHT22;9834;48.076;11.878;2023-03-01T00:59:35;0.90;99.90
19397;DHT22;9834;48.076;11.878;2023-03-01T01:02:03;0.90;99.90
19397;DHT22;9834;48.076;11.878;2023-03-01T01:04:30;0.90;99.90
19397;DHT22;9834;48.076;11.878;2023-03-01T01:06:58;0.90;99.90
19397;DHT22;9834;48.076;11.878;2023-03-01T01:09:26;1.00;99.90
19397;DHT22;9834;48.076;11.878;2023-03-01T01:11:54;1.00;99.90
19397;DHT22;9834;48.076;11.878;2023-03-01T01:14:22;0.90;99.90
19397;DHT22;9834;48.076;11.878;2023-03-01T01:16:49;0.90;99.90
19397;DHT22;9834;48.076;11.878;2023-03-01T01:19:17;0.90;99.90
19397;DHT22;9834;48.076;11.878;2023-03-01T01:21:44;0.90;99.90
19397;DHT22;9834;48.076;11.878;2023-03-01T01:24:12;0.80;99.90
19397;DHT22;9834;48.076;11.878;2023-03-01T01:26:41;0.80;99.90
19397;DHT22;9834;48.076;11.878;2023-03-01T01:29:09;0.80;99.90
19397;DHT22;9834;48.076;11.878;2023-03-01T01:31:39;0.80;99.90
19397;DHT22;9834;48.076;11.878;2023-03-01T01:34:10;0.80;99.90
19397;DHT22;9834;48.076;11.878;2023-03-01T01:36:39;0.90;99.90
19397;DHT22;9834;48.076;11.878;2023-03-01T01:39:07;0.80;99.90
19397;DHT22;9834;48.076;11.878;2023-03-01T01:41:41;0.90;99.90
19397;DHT22;9834;48.076;11.878;2023-03-01T01:44:15;0.80;99.90
19397;DHT22;9834;48.076;11.878;2023-03-01T01:46:45;0.80;99.90
19397;DHT22;9834;48.076;11.878;2023-03-01T01:49:23;0.80;99.90
19397;DHT22;9834;48.076;11.878;2023-03-01T01:51:57;0.80;99.90
19397;DHT22;9834;48.076;11.878;2023-03-01T01:54:31;0.80;99.90
19397;DHT22;9834;48.076;11.878;2023-03-01T01:57:07;0.80;99.90
19397;DHT22;9834;48.076;11.878;2023-03-01T01:59:37;0.80;99.90
19397;DHT22;9834;48.076;11.878;2023-03-01T02:02:05;0.80;99.90
19397;DHT22;9834;48.076;11.878;2023-03-01T02:04:33;0.80;99.90
19397;DHT22;9834;48.076;11.878;2023-03-01T02:07:03;0.80;99.90
19397;DHT22;9834;48.076;11.878;2023-03-01T02:09:33;0.80;99.90
19397;DHT22;9834;48.076;11.878;2023-03-01T02:12:04;0.70;99.90
19397;DHT22;9834;48.076;11.878;2023-03-01T02:14:32;0.80;99.90
19397;DHT22;9834;48.076;11.878;2023-03-01T02:17:00;0.80;99.90
19397;DHT22;9834;48.076;11.878;2023-03-01T02:19:37;0.70;99.90
19397;DHT22;9834;48.076;11.878;2023-03-01T02:22:13;0.70;99.90
19397;DHT22;9834;48.076;11.878;2023-03-01T02:24:50;0.70;99.90
19397;DHT22;9834;48.076;11.878;2023-03-01T02:27:26;0.70;99.90
19397;DHT22;9834;48.076;11.878;2023-03-01T02:29:57;0.70;99.90
19397;DHT22;9834;48.076;11.878;2023-03-01T02:32:24;0.70;99.90
19397;DHT22;9834;48.076;11.878;2023-03-01T02:34:53;0.70;99.90
19397;DHT22;9834;48.076;11.878;2023-03-01T02:37:21;0.70;99.90
19397;DHT22;9834;48.076;11.878;2023-03-01T02:39:53;0.70;99.90
19397;DHT22;9834;48.076;11.878;2023-03-01T02:42:27;0.70;99.90
19397;DHT22;9834;48.076;11.878;2023-03-01T02:44:56;0.70;99.90
19397;DHT22;9834;48.076;11.878;2023-03-01T02:47:24;0.70;99.90
19397;DHT22;9834;48.076;11.878;2023-03-01T02:49:51;0.60;99.90
19397;DHT22;9834;48.076;11.878;2023-03-01T02:52:34;0.60;99.90
19397;DHT22;9834;48.076;11.878;2023-03-01T02:55:06;0.60;99.90
19397;DHT22;9834;48.076;11.878;2023-03-01T02:57:37;0.70;99.90
19397;DHT22;9834;48.076;11.878;2023-03-01T03:00:12;0.60;99.90
19397;DHT22;9834;48.076;11.878;2023-03-01T03:02:45;0.50;99.90
19397;DHT22;9834;48.076;11.878;2023-03-01T03:05:16;0.50;99.90
19397;DHT22;9834;48.076;11.878;2023-03-01T03:07:45;0.50;99.90
19397;DHT22;9834;48.076;11.878;2023-03-01T03:10:16;0.60;99.90
19397;DHT22;9834;48.076;11.878;2023-03-01T03:12:49;0.50;99.90
19397;DHT22;9834;48.076;11.878;2023-03-01T03:15:19;0.60;99.90
19397;DHT22;9834;48.076;11.878;2023-03-01T03:17:46;0.50;99.90
19397;DHT22;9834;48.076;11.878;2023-03-01T03:20:16;0.50;99.90
19397;DHT22;9834;48.076;11.878;2023-03-01T03:22:46;0.50;99.90
19397;DHT22;9834;48.076;11.878;2023-03-01T03:25:15;0.50;99.90
19397;DHT22;9834;48.076;11.878;2023-03-01T03:27:44;0.50;99.90
19397;DHT22;9834;48.076;11.878;2023-03-01T03:30:14;0.40;99.90
19397;DHT22;9834;48.076;11.878;2023-03-01T03:32:44;0.40;99.90
19397;DHT22;9834;48.076;11.878;2023-03-01T03:35:18;0.40;99.90
19397;DHT22;9834;48.076;11.878;2023-03-01T03:37:46;0.40;99.90
19397;DHT22;9834;48.076;11.878;2023-03-01T03:40:31;0.50;99.90
19397;DHT22;9834;48.076;11.878;2023-03-01T03:42:58;0.50;99.90
19397;DHT22;9834;48.076;11.878;2023-03-01T03:45:26;0.40;99.90
19397;DHT22;9834;48.076;11.878;2023-03-01T03:47:55;0.40;99.90
19397;DHT22;9834;48.076;11.878;2023-03-01T03:50:22;0.40;99.90
19397;DHT22;9834;48.076;11.878;2023-03-01T03:52:50;0.30;99.90
19397;DHT22;9834;48.076;11.878;2023-03-01T03:55:18;0.30;99.90
19397;DHT22;9834;48.076;11.878;2023-03-01T03:57:47;0.30;99.90
19397;DHT22;9834;48.076;11.878;2023-03-01T04:00:31;0.30;99.90
19397;DHT22;9834;48.076;11.878;2023-03-01T04:03:00;0.30;99.90
19397;DHT22;9834;48.076;11.878;2023-03-01T04:05:28;0.20;99.90
19397;DHT22;9834;48.076;11.878;2023-03-01T04:07:55;0.20;99.90
19397;DHT22;9834;48.076;11.878;2023-03-01T04:10:29;0.10;99.90
19397;DHT22;9834;48.076;11.878;2023-03-01T04:12:57;0.20;99.90
19397;DHT22;9834;48.076;11.878;2023-03-01T04:15:26;0.20;99.90
19397;DHT22;9834;48.076;11.878;2023-03-01T04:17:54;0.20;99.90
19397;DHT22;9834;48.076;11.878;2023-03-01T04:20:25;0.10;99.90
19397;DHT22;9834;48.076;11.878;2023-03-01T04:22:58;0.10;99.90
19397;DHT22;9834;48.076;11.878;2023-03-01T04:25:26;0.10;99.90
19397;DHT22;9834;48.076;11.878;2023-03-01T04:27:53;0.10;99.90
19397;DHT22;9834;48.076;11.878;2023-03-01T04:30:21;0.10;99.90
19397;DHT22;9834;48.076;11.878;2023-03-01T04:32:51;0.10;99.90
19397;DHT22;9834;48.076;11.878;2023-03-01T04:35:18;0.00;99.90
19397;DHT22;9834;48.076;11.878;2023-03-01T04:37:47;0.00;99.90
19397;DHT22;9834;48.076;11.878;2023-03-01T04:40:17;0.00;99.90
19397;DHT22;9834;48.076;11.878;2023-03-01T04:42:44;-0.10;99.90
19397;DHT22;9834;48.076;11.878;2023-03-01T04:45:13;-0.20;99.90
19397;DHT22;9834;48.076;11.878;2023-03-01T04:47:41;-0.30;99.90
19397;DHT22;9834;48.076;11.878;2023-03-01T04:50:11;-0.30;99.90
19397;DHT22;9834;48.076;11.878;2023-03-01T04:52:39;-0.30;99.90
19397;DHT22;9834;48.076;11.878;2023-03-01T04:55:09;-0.20;99.90
19397;DHT22;9834;48.076;11.878;2023-03-01T04:57:37;-0.20;99.90
19397;DHT22;9834;48.076;11.878;2023-03-01T05:00:06;-0.20;99.90
19397;DHT22;9834;48.076;11.878;2023-03-01T05:02:47;-0.30;99.90
19397;DHT22;9834;48.076;11.878;2023-03-01T05:05:22;-0.30;99.90
19397;DHT22;9834;48.076;11.878;2023-03-01T05:07:52;-0.20;99.90
19397;DHT22;9834;48.076;11.878;2023-03-01T05:10:21;-0.20;99.90
19397;DHT22;9834;48.076;11.878;2023-03-01T05:12:49;-0.30;99.90
19397;DHT22;9834;48.076;11.878;2023-03-01T05:15:18;-0.30;99.90
19397;DHT22;9834;48.076;11.878;2023-03-01T05:17:48;-0.30;99.90
19397;DHT22;9834;48.076;11.878;2023-03-01T05:20:15;-0.30;99.90
19397;DHT22;9834;48.076;11.878;2023-03-01T05:22:43;-0.30;99.90
19397;DHT22;9834;48.076;11.878;2023-03-01T05:25:11;-0.20;99.90
19397;DHT22;9834;48.076;11.878;2023-03-01T05:27:40;-0.20;99.90
19397;DHT22;9834;48.076;11.878;2023-03-01T05:30:09;-0.20;99.90
19397;DHT22;9834;48.076;11.878;2023-03-01T05:32:41;-0.30;99.90
19397;DHT22;9834;48.076;11.878;2023-03-01T05:35:11;-0.30;99.90
19397;DHT22;9834;48.076;11.878;2023-03-01T05:37:43;-0.40;99.90
19397;DHT22;9834;48.076;11.878;2023-03-01T05:40:13;-0.40;99.90
19397;DHT22;9834;48.076;11.878;2023-03-01T05:42:45;-0.40;99.90
19397;DHT22;9834;48.076;11.878;2023-03-01T05:45:13;-0.40;99.90
19397;DHT22;9834;48.076;11.878;2023-03-01T05:47:41;-0.50;99.90
19397;DHT22;9834;48.076;11.878;2023-03-01T05:50:14;-0.50;99.90
19397;DHT22;9834;48.076;11.878;2023-03-01T05:52:45;-0.50;99.90
19397;DHT22;9834;48.076;11.878;2023-03-01T05:55:14;-0.50;99.90
19397;DHT22;9834;48.076;11.878;2023-03-01T05:57:43;-0.40;99.90
19397;DHT22;9834;48.076;11.878;2023-03-01T06:00:13;-0.40;99.90
19397;DHT22;9834;48.076;11.878;2023-03-01T06:02:41;-0.40;99.90
19397;DHT22;9834;48.076;11.878;2023-03-01T06:05:10;-0.40;99.90
19397;DHT22;9834;48.076;11.878;2023-03-01T06:07:38;-0.40;99.90
19397;DHT22;9834;48.076;11.878;2023-03-01T06:10:07;-0.40;99.90
19397;DHT22;9834;48.076;11.878;2023-03-01T06:12:35;-0.40;99.90
19397;DHT22;9834;48.076;11.878;2023-03-01T06:15:06;-0.40;99.90
19397;DHT22;9834;48.076;11.878;2023-03-01T06:17:36;-0.30;99.90
19397;DHT22;9834;48.076;11.878;2023-03-01T06:20:04;-0.40;99.90
19397;DHT22;9834;48.076;11.878;2023-03-01T06:22:31;-0.50;99.90
19397;DHT22;9834;48.076;11.878;2023-03-01T06:24:58;-0.50;99.90
19397;DHT22;9834;48.076;11.878;2023-03-01T06:27:26;-0.50;99.90
19397;DHT22;9834;48.076;11.878;2023-03-01T06:29:53;-0.40;99.90
19397;DHT22;9834;48.076;11.878;2023-03-01T06:32:22;-0.40;99.90
19397;DHT22;9834;48.076;11.878;2023-03-01T06:34:49;-0.40;99.90
19397;DHT22;9834;48.076;11.878;2023-03-01T06:37:17;-0.30;99.90
19397;DHT22;9834;48.076;11.878;2023-03-01T06:39:44;-0.30;99.90
19397;DHT22;9834;48.076;11.878;2023-03-01T06:42:11;-0.30;99.90
19397;DHT22;9834;48.076;11.878;2023-03-01T06:44:38;-0.20;99.90
19397;DHT22;9834;48.076;11.878;2023-03-01T06:47:06;-0.20;99.90
19397;DHT22;9834;48.076;11.878;2023-03-01T06:49:34;-0.20;99.90
19397;DHT22;9834;48.076;11.878;2023-03-01T06:52:01;-0.10;99.90
19397;DHT22;9834;48.076;11.878;2023-03-01T06:54:28;-0.10;99.90
19397;DHT22;9834;48.076;11.878;2023-03-01T06:56:55;-0.10;99.90
19397;DHT22;9834;48.076;11.878;2023-03-01T06:59:23;-0.20;99.90
19397;DHT22;9834;48.076;11.878;2023-03-01T07:01:50;-0.10;99.90
19397;DHT22;9834;48.076;11.878;2023-03-01T07:04:17;-0.10;99.90
19397;DHT22;9834;48.076;11.878;2023-03-01T07:06:46;-0.10;99.90
19397;DHT22;9834;48.076;11.878;2023-03-01T07:09:19;-0.10;99.90
19397;DHT22;9834;48.076;11.878;2023-03-01T07:11:47;0.00;99.90
19397;DHT22;9834;48.076;11.878;2023-03-01T07:14:14;0.10;99.90
19397;DHT22;9834;48.076;11.878;2023-03-01T07:16:41;0.30;99.90
19397;DHT22;9834;48.076;11.878;2023-03-01T07:19:09;0.30;99.90
19397;DHT22;9834;48.076;11.878;2023-03-01T07:21:36;0.30;99.90
19397;DHT22;9834;48.076;11.878;2023-03-01T07:24:06;0.30;99.90
19397;DHT22;9834;48.076;11.878;2023-03-01T07:26:34;0.40;99.90
19397;DHT22;9834;48.076;11.878;2023-03-01T07:29:01;0.30;99.90
19397;DHT22;9834;48.076;11.878;2023-03-01T07:31:29;0.40;99.90
19397;DHT22;9834;48.076;11.878;2023-03-01T07:33:57;0.40;99.90
19397;DHT22;9834;48.076;11.878;2023-03-01T07:36:24;0.50;99.90
19397;DHT22;9834;48.076;11.878;2023-03-01T07:38:51;0.50;99.90
19397;DHT22;9834;48.076;11.878;2023-03-01T07:41:20;0.50;99.90
19397;DHT22;9834;48.076;11.878;2023-03-01T07:43:48;0.70;99.90
19397;DHT22;9834;48.076;11.878;2023-03-01T07:46:15;0.70;99.90
19397;DHT22;9834;48.076;11.878;2023-03-01T07:48:44;0.80;99.90
19397;DHT22;9834;48.076;11.878;2023-03-01T07:51:11;0.90;99.90
19397;DHT22;9834;48.076;11.878;2023-03-01T07:53:38;0.90;99.90
19397;DHT22;9834;48.076;11.878;2023-03-01T07:56:07;0.90;99.90
19397;DHT22;9834;48.076;11.878;2023-03-01T07:58:39;0.90;99.90
19397;DHT22;9834;48.076;11.878;2023-03-01T08:01:08;0.90;99.90
19397;DHT22;9834;48.076;11.878;2023-03-01T08:03:36;0.90;99.90
19397;DHT22;9834;48.076;11.878;2023-03-01T08:06:05;0.80;99.90
19397;DHT22;9834;48.076;11.878;2023-03-01T08:08:32;0.70;99.90
19397;DHT22;9834;48.076;11.878;2023-03-01T08:11:01;0.80;99.90
19397;DHT22;9834;48.076;11.878;2023-03-01T08:13:29;1.00;99.90
19397;DHT22;9834;48.076;11.878;2023-03-01T08:16:02;1.10;99.90
19397;DHT22;9834;48.076;11.878;2023-03-01T08:18:30;1.30;99.90
19397;DHT22;9834;48.076;11.878;2023-03-01T08:21:02;1.20;99.90
19397;DHT22;9834;48.076;11.878;2023-03-01T08:23:29;1.30;99.90
19397;DHT22;9834;48.076;11.878;2023-03-01T08:26:04;1.50;99.90
19397;DHT22;9834;48.076;11.878;2023-03-01T08:28:32;1.60;99.90
19397;DHT22;9834;48.076;11.878;2023-03-01T08:31:01;1.70;99.90
19397;DHT22;9834;48.076;11.878;2023-03-01T08:33:28;1.80;99.90
19397;DHT22;9834;48.076;11.878;2023-03-01T08:36:03;1.90;98.70
19397;DHT22;9834;48.076;11.878;2023-03-01T08:38:30;1.80;98.40
19397;DHT22;9834;48.076;11.878;2023-03-01T08:41:00;1.90;98.90
19397;DHT22;9834;48.076;11.878;2023-03-01T08:43:27;2.00;98.00
19397;DHT22;9834;48.076;11.878;2023-03-01T08:45:54;2.20;97.20
19397;DHT22;9834;48.076;11.878;2023-03-01T08:48:23;2.30;97.00
19397;DHT22;9834;48.076;11.878;2023-03-01T08:50:51;2.20;96.70
19397;DHT22;9834;48.076;11.878;2023-03-01T08:53:18;2.20;96.50
19397;DHT22;9834;48.076;11.878;2023-03-01T08:55:45;2.10;96.50
19397;DHT22;9834;48.076;11.878;2023-03-01T08:58:13;2.00;96.20
19397;DHT22;9834;48.076;11.878;2023-03-01T09:00:41;2.00;96.70
19397;DHT22;9834;48.076;11.878;2023-03-01T09:03:08;2.30;97.00
19397;DHT22;9834;48.076;11.878;2023-03-01T09:05:36;2.40;96.10
19397;DHT22;9834;48.076;11.878;2023-03-01T09:08:04;2.50;96.10
19397;DHT22;9834;48.076;11.878;2023-03-01T09:10:37;2.50;95.40
19397;DHT22;9834;48.076;11.878;2023-03-01T09:13:05;2.60;95.10
19397;DHT22;9834;48.076;11.878;2023-03-01T09:15:32;2.80;94.90
19397;DHT22;9834;48.076;11.878;2023-03-01T09:18:00;2.90;93.70
19397;DHT22;9834;48.076;11.878;2023-03-01T09:20:28;2.90;93.80
19397;DHT22;9834;48.076;11.878;2023-03-01T09:22:58;2.80;93.40
19397;DHT22;9834;48.076;11.878;2023-03-01T09:25:26;2.80;93.60
19397;DHT22;9834;48.076;11.878;2023-03-01T09:27:54;2.80;93.60
19397;DHT22;9834;48.076;11.878;2023-03-01T09:30:22;2.80;93.00
19397;DHT22;9834;48.076;11.878;2023-03-01T09:32:50;2.80;93.40
19397;DHT22;9834;48.076;11.878;2023-03-01T09:35:18;3.00;93.20
19397;DHT22;9834;48.076;11.878;2023-03-01T09:37:45;3.20;92.80
19397;DHT22;9834;48.076;11.878;2023-03-01T09:40:19;3.20;92.10
19397;DHT22;9834;48.076;11.878;2023-03-01T09:42:53;3.10;91.80
19397;DHT22;9834;48.076;11.878;2023-03-01T09:45:32;3.20;91.80
19397;DHT22;9834;48.076;11.878;2023-03-01T09:48:00;3.30;91.70
19397;DHT22;9834;48.076;11.878;2023-03-01T09:50:33;3.20;91.90
19397;DHT22;9834;48.076;11.878;2023-03-01T09:53:03;3.00;91.90
19397;DHT22;9834;48.076;11.878;2023-03-01T09:55:39;3.00;91.90
19397;DHT22;9834;48.076;11.878;2023-03-01T09:58:29;3.10;92.90
19397;DHT22;9834;48.076;11.878;2023-03-01T10:01:00;3.20;92.30
19397;DHT22;9834;48.076;11.878;2023-03-01T10:03:34;3.10;92.10
19397;DHT22;9834;48.076;11.878;2023-03-01T10:06:08;3.20;92.30
19397;DHT22;9834;48.076;11.878;2023-03-01T10:08:41;3.10;92.20
19397;DHT22;9834;48.076;11.878;2023-03-01T10:11:20;3.40;92.50
19397;DHT22;9834;48.076;11.878;2023-03-01T10:13:54;3.80;91.50
19397;DHT22;9834;48.076;11.878;2023-03-01T10:16:26;3.70;90.30
19397;DHT22;9834;48.076;11.878;2023-03-01T10:18:58;3.50;90.10
19397;DHT22;9834;48.076;11.878;2023-03-01T10:21:28;3.80;90.10
19397;DHT22;9834;48.076;11.878;2023-03-01T10:24:05;4.40;87.40
19397;DHT22;9834;48.076;11.878;2023-03-01T10:26:51;4.60;85.10
19397;DHT22;9834;48.076;11.878;2023-03-01T10:29:24;4.80;84.10
19397;DHT22;9834;48.076;11.878;2023-03-01T10:31:54;4.40;84.70
19397;DHT22;9834;48.076;11.878;2023-03-01T10:34:28;4.20;85.20
19397;DHT22;9834;48.076;11.878;2023-03-01T10:36:57;4.30;85.30
19397;DHT22;9834;48.076;11.878;2023-03-01T10:39:26;3.90;86.10
19397;DHT22;9834;48.076;11.878;2023-03-01T10:41:59;3.70;86.70
19397;DHT22;9834;48.076;11.878;2023-03-01T10:44:43;3.70;88.10
19397;DHT22;9834;48.076;11.878;2023-03-01T10:47:19;4.10;86.10
19397;DHT22;9834;48.076;11.878;2023-03-01T10:49:58;4.30;85.40
19397;DHT22;9834;48.076;11.878;2023-03-01T10:52:32;4.30;84.50
19397;DHT22;9834;48.076;11.878;2023-03-01T10:55:03;4.90;86.20
19397;DHT22;9834;48.076;11.878;2023-03-01T10:57:35;5.50;82.70
19397;DHT22;9834;48.076;11.878;2023-03-01T11:00:17;5.90;81.10
19397;DHT22;9834;48.076;11.878;2023-03-01T11:02:48;6.10;78.40
19397;DHT22;9834;48.076;11.878;2023-03-01T11:05:20;6.30;76.40
19397;DHT22;9834;48.076;11.878;2023-03-01T11:07:51;6.50;75.20
19397;DHT22;9834;48.076;11.878;2023-03-01T11:10:21;6.60;73.60
19397;DHT22;9834;48.076;11.878;2023-03-01T11:12:51;6.90;74.90
19397;DHT22;9834;48.076;11.878;2023-03-01T11:15:25;6.90;73.60
19397;DHT22;9834;48.076;11.878;2023-03-01T11:17:53;7.00;71.10
19397;DHT22;9834;48.076;11.878;2023-03-01T11:20:27;7.60;70.20
19397;DHT22;9834;48.076;11.878;2023-03-01T11:22:59;8.00;69.10
19397;DHT22;9834;48.076;11.878;2023-03-01T11:25:33;8.40;68.70
19397;DHT22;9834;48.076;11.878;2023-03-01T11:28:04;9.10;66.40
19397;DHT22;9834;48.076;11.878;2023-03-01T11:30:35;9.20;64.00
19397;DHT22;9834;48.076;11.878;2023-03-01T11:33:16;9.60;64.70
19397;DHT22;9834;48.076;11.878;2023-03-01T11:35:50;9.40;63.20
19397;DHT22;9834;48.076;11.878;2023-03-01T11:38:22;10.00;61.60
19397;DHT22;9834;48.076;11.878;2023-03-01T11:40:54;10.50;60.50
19397;DHT22;9834;48.076;11.878;2023-03-01T11:43:35;10.70;57.60
19397;DHT22;9834;48.076;11.878;2023-03-01T11:49:44;10.00;58.80
19397;DHT22;9834;48.076;11.878;2023-03-01T11:52:22;10.20;58.00
19397;DHT22;9834;48.076;11.878;2023-03-01T11:55:06;10.30;58.50
19397;DHT22;9834;48.076;11.878;2023-03-01T11:57:52;11.00;57.60
19397;DHT22;9834;48.076;11.878;2023-03-01T12:00:43;11.10;56.30
19397;DHT22;9834;48.076;11.878;2023-03-01T12:03:38;11.90;56.90
19397;DHT22;9834;48.076;11.878;2023-03-01T12:06:28;12.50;55.20
19397;DHT22;9834;48.076;11.878;2023-03-01T12:09:13;12.20;54.10
19397;DHT22;9834;48.076;11.878;2023-03-01T12:14:52;12.40;53.40
19397;DHT22;9834;48.076;11.878;2023-03-01T12:17:43;12.90;52.20
19397;DHT22;9834;48.076;11.878;2023-03-01T12:20:20;13.00;52.20
19397;DHT22;9834;48.076;11.878;2023-03-01T12:25:48;13.40;50.40
19397;DHT22;9834;48.076;11.878;2023-03-01T12:31:50;12.80;52.20
19397;DHT22;9834;48.076;11.878;2023-03-01T12:37:24;12.90;49.30
19397;DHT22;9834;48.076;11.878;2023-03-01T12:40:03;13.60;50.90
19397;DHT22;9834;48.076;11.878;2023-03-01T12:42:43;14.30;47.70
19397;DHT22;9834;48.076;11.878;2023-03-01T12:45:35;14.30;47.00
19397;DHT22;9834;48.076;11.878;2023-03-01T12:48:26;14.00;48.40
19397;DHT22;9834;48.076;11.878;2023-03-01T12:51:02;12.70;50.10
19397;DHT22;9834;48.076;11.878;2023-03-01T12:53:34;11.90;50.90
19397;DHT22;9834;48.076;11.878;2023-03-01T12:56:06;11.60;52.90
19397;DHT22;9834;48.076;11.878;2023-03-01T12:59:46;13.10;52.40
19397;DHT22;9834;48.076;11.878;2023-03-01T13:02:10;13.70;50.30
19397;DHT22;9834;48.076;11.878;2023-03-01T13:05:00;14.40;48.00
19397;DHT22;9834;48.076;11.878;2023-03-01T13:07:36;15.30;46.50
19397;DHT22;9834;48.076;11.878;2023-03-01T13:10:22;15.60;45.00
19397;DHT22;9834;48.076;11.878;2023-03-01T13:13:01;15.40;45.50
19397;DHT22;9834;48.076;11.878;2023-03-01T13:15:34;15.30;45.60
19397;DHT22;9834;48.076;11.878;2023-03-01T13:18:04;16.10;45.80
19397;DHT22;9834;48.076;11.878;2023-03-01T13:20:45;16.60;45.40
19397;DHT22;9834;48.076;11.878;2023-03-01T13:23:25;16.90;43.60
19397;DHT22;9834;48.076;11.878;2023-03-01T13:26:12;17.30;44.50
19397;DHT22;9834;48.076;11.878;2023-03-01T13:28:51;17.50;45.00
19397;DHT22;9834;48.076;11.878;2023-03-01T13:34:43;18.30;43.50
19397;DHT22;9834;48.076;11.878;2023-03-01T13:37:22;18.50;41.10
19397;DHT22;9834;48.076;11.878;2023-03-01T13:39:52;18.80;41.70
19397;DHT22;9834;48.076;11.878;2023-03-01T13:42:38;18.90;40.60
19397;DHT22;9834;48.076;11.878;2023-03-01T13:45:20;19.10;39.80
19397;DHT22;9834;48.076;11.878;2023-03-01T13:47:52;19.30;41.00
19397;DHT22;9834;48.076;11.878;2023-03-01T13:50:23;18.40;39.00
19397;DHT22;9834;48.076;11.878;2023-03-01T13:52:54;18.90;41.40
19397;DHT22;9834;48.076;11.878;2023-03-01T13:55:34;19.00;40.50
19397;DHT22;9834;48.076;11.878;2023-03-01T13:58:04;18.90;40.00
19397;DHT22;9834;48.076;11.878;2023-03-01T14:00:35;19.50;39.60
19397;DHT22;9834;48.076;11.878;2023-03-01T14:03:08;20.00;39.90
19397;DHT22;9834;48.076;11.878;2023-03-01T14:05:35;19.00;39.40
19397;DHT22;9834;48.076;11.878;2023-03-01T14:08:03;18.30;41.20
19397;DHT22;9834;48.076;11.878;2023-03-01T14:10:45;18.40;40.20
19397;DHT22;9834;48.076;11.878;2023-03-01T14:13:26;19.00;40.50
19397;DHT22;9834;48.076;11.878;2023-03-01T14:16:10;20.40;39.10
19397;DHT22;9834;48.076;11.878;2023-03-01T14:18:43;20.60;38.20
19397;DHT22;9834;48.076;11.878;2023-03-01T14:21:14;20.40;38.00
19397;DHT22;9834;48.076;11.878;2023-03-01T14:23:42;20.90;37.80
19397;DHT22;9834;48.076;11.878;2023-03-01T14:26:10;20.60;37.40
19397;DHT22;9834;48.076;11.878;2023-03-01T14:28:38;20.20;37.30
19397;DHT22;9834;48.076;11.878;2023-03-01T14:31:29;18.90;38.40
19397;DHT22;9834;48.076;11.878;2023-03-01T14:33:58;18.20;40.10
19397;DHT22;9834;48.076;11.878;2023-03-01T14:36:28;18.10;40.30
19397;DHT22;9834;48.076;11.878;2023-03-01T14:38:55;18.30;39.60
19397;DHT22;9834;48.076;11.878;2023-03-01T14:41:27;18.30;41.20
19397;DHT22;9834;48.076;11.878;2023-03-01T14:43:57;17.90;39.70
19397;DHT22;9834;48.076;11.878;2023-03-01T14:46:29;17.60;40.00
19397;DHT22;9834;48.076;11.878;2023-03-01T14:49:02;17.90;41.50
19397;DHT22;9834;48.076;11.878;2023-03-01T14:51:34;18.10;40.30
19397;DHT22;9834;48.076;11.878;2023-03-01T14:54:02;18.60;39.50
19397;DHT22;9834;48.076;11.878;2023-03-01T14:56:43;18.10;39.50
19397;DHT22;9834;48.076;11.878;2023-03-01T14:59:11;18.30;40.30
19397;DHT22;9834;48.076;11.878;2023-03-01T15:01:40;18.50;39.50
19397;DHT22;9834;48.076;11.878;2023-03-01T15:04:12;17.80;40.50
19397;DHT22;9834;48.076;11.878;2023-03-01T15:06:40;16.70;41.10
19397;DHT22;9834;48.076;11.878;2023-03-01T15:09:13;16.20;43.10
19397;DHT22;9834;48.076;11.878;2023-03-01T15:11:43;15.30;44.30
19397;DHT22;9834;48.076;11.878;2023-03-01T15:14:39;15.60;45.20
19397;DHT22;9834;48.076;11.878;2023-03-01T15:17:21;15.40;43.50
19397;DHT22;9834;48.076;11.878;2023-03-01T15:19:51;15.90;44.20
19397;DHT22;9834;48.076;11.878;2023-03-01T15:22:18;15.80;43.70
19397;DHT22;9834;48.076;11.878;2023-03-01T15:24:47;16.20;43.80
19397;DHT22;9834;48.076;11.878;2023-03-01T15:27:18;16.00;44.50
19397;DHT22;9834;48.076;11.878;2023-03-01T15:29:53;15.70;43.90
19397;DHT22;9834;48.076;11.878;2023-03-01T15:32:27;14.90;45.70
19397;DHT22;9834;48.076;11.878;2023-03-01T15:34:56;15.00;45.90
19397;DHT22;9834;48.076;11.878;2023-03-01T15:37:40;14.80;45.90
19397;DHT22;9834;48.076;11.878;2023-03-01T15:40:21;15.20;47.10
19397;DHT22;9834;48.076;11.878;2023-03-01T15:42:58;15.70;45.50
19397;DHT22;9834;48.076;11.878;2023-03-01T15:45:28;14.20;45.90
19397;DHT22;9834;48.076;11.878;2023-03-01T15:47:57;13.60;47.80
19397;DHT22;9834;48.076;11.878;2023-03-01T15:50:29;12.80;49.70
19397;DHT22;9834;48.076;11.878;2023-03-01T15:53:00;12.10;50.90
19397;DHT22;9834;48.076;11.878;2023-03-01T15:55:30;11.70;52.90
19397;DHT22;9834;48.076;11.878;2023-03-01T15:58:02;11.20;53.80
19397;DHT22;9834;48.076;11.878;2023-03-01T16:00:30;10.50;54.70
19397;DHT22;9834;48.076;11.878;2023-03-01T16:02:58;9.80;57.10
19397;DHT22;9834;48.076;11.878;2023-03-01T16:05:27;9.10;58.90
19397;DHT22;9834;48.076;11.878;2023-03-01T16:07:56;8.80;60.20
19397;DHT22;9834;48.076;11.878;2023-03-01T16:10:24;8.40;61.80
19397;DHT22;9834;48.076;11.878;2023-03-01T16:12:51;8.20;62.80
19397;DHT22;9834;48.076;11.878;2023-03-01T16:15:22;7.90;64.00
19397;DHT22;9834;48.076;11.878;2023-03-01T16:17:50;7.70;65.20
19397;DHT22;9834;48.076;11.878;2023-03-01T16:20:18;7.40;66.90
19397;DHT22;9834;48.076;11.878;2023-03-01T16:22:46;7.20;68.30
19397;DHT22;9834;48.076;11.878;2023-03-01T16:25:17;7.00;68.40